createdAt,value
2017-03-13T00:00:45.153Z,91.39
2017-03-13T00:01:45.141Z,91.48
2017-03-13T00:02:45.121Z,91.29
2017-03-13T00:03:45.117Z,91.77
2017-03-13T00:04:45.092Z,91.67
2017-03-13T00:05:45.079Z,91.77
2017-03-13T00:06:45.064Z,91.86
2017-03-13T00:07:45.051Z,91.96
2017-03-13T00:08:45.034Z,91.67
2017-03-13T00:09:45.021Z,92.14
2017-03-13T00:10:45.005Z,92.05
2017-03-13T00:11:45.013Z,92.05
2017-03-13T00:12:44.979Z,92.24
2017-03-13T00:13:44.960Z,91.77
2017-03-13T00:14:44.955Z,91.48
2017-03-13T00:15:44.937Z,92.24
2017-03-13T00:16:44.927Z,91.77
2017-03-13T00:17:44.904Z,92.43
2017-03-13T00:18:44.888Z,92.43
2017-03-13T00:19:44.885Z,91.96
2017-03-13T00:20:44.856Z,92.24
2017-03-13T00:21:44.843Z,92.14
2017-03-13T00:22:44.826Z,92.14
2017-03-13T00:23:44.815Z,92.24
2017-03-13T00:24:44.799Z,91.67
2017-03-13T00:25:44.794Z,91.48
2017-03-13T00:26:44.766Z,91.58
2017-03-13T00:27:44.752Z,91.67
2017-03-13T00:28:44.744Z,91.77
2017-03-13T00:29:44.723Z,92.24
2017-03-13T00:30:44.706Z,92.24
2017-03-13T00:31:44.697Z,92.24
2017-03-13T00:32:44.679Z,92.24
2017-03-13T00:33:44.660Z,91.67
2017-03-13T00:34:44.650Z,92.24
2017-03-13T00:35:44.635Z,91.86
2017-03-13T00:36:44.625Z,92.43
2017-03-13T00:37:44.605Z,92.14
2017-03-13T00:38:44.614Z,92.33
2017-03-13T00:39:44.189Z,92.24
2017-03-13T00:40:44.560Z,92.61
2017-03-13T00:41:44.543Z,92.94
2017-03-13T00:42:44.531Z,92.99
2017-03-13T00:43:44.513Z,93.37
2017-03-13T00:44:44.498Z,93.18
2017-03-13T00:45:44.484Z,92.99
2017-03-13T00:46:44.480Z,93.18
2017-03-13T00:47:44.460Z,92.9
2017-03-13T00:48:44.440Z,92.99
2017-03-13T00:49:44.428Z,92.9
2017-03-13T00:50:44.418Z,92.71
2017-03-13T00:51:44.397Z,92.99
2017-03-13T00:52:44.379Z,92.8
2017-03-13T00:53:44.380Z,92.71
2017-03-13T00:54:44.349Z,92.99
2017-03-13T00:55:44.335Z,92.94
2017-03-13T00:56:44.333Z,93.13
2017-03-13T00:57:44.305Z,93.04
2017-03-13T00:58:44.290Z,93.32
2017-03-13T00:59:44.283Z,93.32
2017-03-13T01:00:44.261Z,93.42
2017-03-13T01:01:44.249Z,93.42
2017-03-13T01:02:44.231Z,93.32
2017-03-13T01:03:44.217Z,93.61
2017-03-13T01:04:44.213Z,93.13
2017-03-13T01:05:44.197Z,93.13
2017-03-13T01:06:44.174Z,93.37
2017-03-13T01:07:44.157Z,93.18
2017-03-13T01:08:44.141Z,93.85
2017-03-13T01:09:44.128Z,93.8
2017-03-13T01:10:44.125Z,93.75
2017-03-13T01:11:44.101Z,93.56
2017-03-13T01:12:44.089Z,93.56
2017-03-13T01:13:44.068Z,94.04
2017-03-13T01:14:44.052Z,93.94
2017-03-13T01:15:44.037Z,94.13
2017-03-13T01:16:44.024Z,94.04
2017-03-13T01:17:44.023Z,94.04
2017-03-13T01:18:43.998Z,93.56
2017-03-13T01:19:43.977Z,93.32
2017-03-13T01:20:43.972Z,93.47
2017-03-13T01:21:43.949Z,94.04
2017-03-13T01:22:43.942Z,93.75
2017-03-13T01:23:43.929Z,93.75
2017-03-13T01:24:43.910Z,94.04
2017-03-13T01:25:43.890Z,93.75
2017-03-13T01:26:43.875Z,93.66
2017-03-13T01:27:43.859Z,93.89
2017-03-13T01:28:43.842Z,94.42
2017-03-13T01:29:43.843Z,94.42
2017-03-13T01:30:43.817Z,94.23
2017-03-13T01:31:43.800Z,94.13
2017-03-13T01:32:43.784Z,93.94
2017-03-13T01:33:43.773Z,93.56
2017-03-13T01:34:43.754Z,93.47
2017-03-13T01:35:43.739Z,93.85
2017-03-13T01:36:43.733Z,93.66
2017-03-13T01:37:43.714Z,93.75
2017-03-13T01:38:43.694Z,94.04
2017-03-13T01:39:43.294Z,93.56
2017-03-13T01:40:43.668Z,93.94
2017-03-13T01:41:43.659Z,94.13
2017-03-13T01:42:43.640Z,93.89
2017-03-13T01:43:43.618Z,93.89
2017-03-13T01:44:43.606Z,93.94
2017-03-13T01:45:43.592Z,94.42
2017-03-13T01:46:43.585Z,94.13
2017-03-13T01:47:43.559Z,94.13
2017-03-13T01:48:43.546Z,93.94
2017-03-13T01:49:43.534Z,94.23
2017-03-13T01:50:43.516Z,94.04
2017-03-13T01:51:43.507Z,94.42
2017-03-13T01:52:43.497Z,94.42
2017-03-13T01:53:43.480Z,94.23
2017-03-13T01:54:43.455Z,94.32
2017-03-13T01:55:43.441Z,94.42
2017-03-13T01:56:43.424Z,94.23
2017-03-13T01:57:43.414Z,93.85
2017-03-13T01:58:43.394Z,94.04
2017-03-13T01:59:43.382Z,93.75
2017-03-13T02:00:43.366Z,93.66
2017-03-13T02:01:43.363Z,94.04
2017-03-13T02:02:43.338Z,93.66
2017-03-13T02:03:43.333Z,93.75
2017-03-13T02:04:43.312Z,93.66
2017-03-13T02:05:43.330Z,94.04
2017-03-13T02:06:43.277Z,93.47
2017-03-13T02:07:43.261Z,93.85
2017-03-13T02:08:43.244Z,93.85
2017-03-13T02:09:43.231Z,93.66
2017-03-13T02:10:43.218Z,93.18
2017-03-13T02:11:43.204Z,93.28
2017-03-13T02:12:43.191Z,92.8
2017-03-13T02:13:43.183Z,93.09
2017-03-13T02:14:43.158Z,93.09
2017-03-13T02:15:43.154Z,92.9
2017-03-13T02:16:43.133Z,92.99
2017-03-13T02:17:43.117Z,93.18
2017-03-13T02:18:43.104Z,92.61
2017-03-13T02:19:43.092Z,92.71
2017-03-13T02:20:43.070Z,92.43
2017-03-13T02:21:43.059Z,92.24
2017-03-13T02:22:43.037Z,92.61
2017-03-13T02:23:43.025Z,92.24
2017-03-13T02:24:42.626Z,92.61
2017-03-13T02:25:42.996Z,92.14
2017-03-13T02:26:42.980Z,92.61
2017-03-13T02:27:42.964Z,92.05
2017-03-13T02:28:42.955Z,92.33
2017-03-13T02:29:42.948Z,92.05
2017-03-13T02:30:42.926Z,92.33
2017-03-13T02:31:42.906Z,92.24
2017-03-13T02:32:42.893Z,92.43
2017-03-13T02:33:42.874Z,92.61
2017-03-13T02:34:42.893Z,92.61
2017-03-13T02:35:42.847Z,92.43
2017-03-13T02:36:42.833Z,92.71
2017-03-13T02:37:42.817Z,92.43
2017-03-13T02:38:42.809Z,92.43
2017-03-13T02:39:42.791Z,92.14
2017-03-13T02:40:42.772Z,92.33
2017-03-13T02:41:42.758Z,92.24
2017-03-13T02:42:42.753Z,92.05
2017-03-13T02:43:42.732Z,92.24
2017-03-13T02:44:42.713Z,92.14
2017-03-13T02:45:42.698Z,92.24
2017-03-13T02:46:42.700Z,92.05
2017-03-13T02:47:42.675Z,92.61
2017-03-13T02:48:42.661Z,92.14
2017-03-13T02:49:42.641Z,92.24
2017-03-13T02:50:42.624Z,92.61
2017-03-13T02:51:42.617Z,92.14
2017-03-13T02:52:42.596Z,92.52
2017-03-13T02:53:42.594Z,92.8
2017-03-13T02:54:42.576Z,92.14
2017-03-13T02:55:42.549Z,92.33
2017-03-13T02:56:42.536Z,92.24
2017-03-13T02:57:42.519Z,92.52
2017-03-13T02:58:42.503Z,92.43
2017-03-13T02:59:42.491Z,92.52
2017-03-13T03:00:42.479Z,92.61
2017-03-13T03:01:42.462Z,92.61
2017-03-13T03:02:42.448Z,92.71
2017-03-13T03:03:42.434Z,92.52
2017-03-13T03:04:42.414Z,92.61
2017-03-13T03:05:42.404Z,92.52
2017-03-13T03:06:42.388Z,92.61
2017-03-13T03:07:42.370Z,92.43
2017-03-13T03:08:42.356Z,92.52
2017-03-13T03:09:42.338Z,92.57
2017-03-13T03:10:42.336Z,92.61
2017-03-13T03:11:42.311Z,92.38
2017-03-13T03:12:42.295Z,92.61
2017-03-13T03:13:42.278Z,92.76
2017-03-13T03:14:42.263Z,92.71
2017-03-13T03:15:42.274Z,92.57
2017-03-13T03:16:42.241Z,92.71
2017-03-13T03:17:41.832Z,92.47
2017-03-13T03:18:42.205Z,92.47
2017-03-13T03:19:42.204Z,92.47
2017-03-13T03:20:42.175Z,92.38
2017-03-13T03:21:42.167Z,92
2017-03-13T03:22:42.144Z,92.19
2017-03-13T03:23:42.127Z,92.38
2017-03-13T03:24:42.112Z,92.19
2017-03-13T03:25:42.099Z,92.29
2017-03-13T03:26:42.081Z,92.19
2017-03-13T03:27:42.090Z,92.29
2017-03-13T03:28:42.061Z,92.19
2017-03-13T03:29:42.045Z,92.38
2017-03-13T03:30:42.022Z,92.29
2017-03-13T03:31:42.007Z,92.29
2017-03-13T03:32:41.993Z,92.19
2017-03-13T03:33:41.978Z,92.1
2017-03-13T03:34:41.582Z,92.47
2017-03-13T03:35:41.944Z,92.19
2017-03-13T03:36:41.930Z,92.38
2017-03-13T03:37:41.945Z,92.29
2017-03-13T03:38:41.909Z,92.29
2017-03-13T03:39:41.889Z,92.29
2017-03-13T03:40:41.493Z,92.1
2017-03-13T03:41:41.871Z,92.19
2017-03-13T03:42:41.841Z,92.66
2017-03-13T03:43:41.825Z,92.38
2017-03-13T03:44:41.809Z,92.57
2017-03-13T03:45:41.795Z,92.57
2017-03-13T03:46:41.779Z,92.57
2017-03-13T03:47:41.779Z,92.47
2017-03-13T03:48:41.759Z,92.38
2017-03-13T03:49:41.750Z,92.57
2017-03-13T03:50:41.725Z,92.1
2017-03-13T03:51:41.328Z,92.19
2017-03-13T03:52:41.688Z,92.47
2017-03-13T03:53:41.672Z,92.47
2017-03-13T03:54:41.657Z,92.57
2017-03-13T03:55:41.666Z,92.66
2017-03-13T03:56:41.643Z,92.57
2017-03-13T03:57:41.633Z,92.47
2017-03-13T03:58:41.597Z,92.38
2017-03-13T03:59:41.580Z,92.19
2017-03-13T04:00:41.573Z,92.19
2017-03-13T04:01:41.549Z,92.1
2017-03-13T04:02:41.535Z,92.47
2017-03-13T04:03:41.529Z,92.29
2017-03-13T04:04:41.503Z,92.1
2017-03-13T04:05:41.489Z,92.57
2017-03-13T04:06:41.473Z,92.66
2017-03-13T04:07:41.082Z,92.57
2017-03-13T04:08:41.443Z,93.04
2017-03-13T04:09:41.041Z,92.66
2017-03-13T04:10:41.411Z,93.04
2017-03-13T04:11:41.397Z,93.04
2017-03-13T04:12:41.380Z,93.04
2017-03-13T04:13:41.382Z,92.94
2017-03-13T04:14:41.353Z,92.94
2017-03-13T04:15:41.336Z,92.57
2017-03-13T04:16:41.321Z,93.04
2017-03-13T04:17:41.305Z,92.57
2017-03-13T04:18:41.288Z,92.57
2017-03-13T04:19:41.271Z,92.94
2017-03-13T04:20:41.259Z,92.66
2017-03-13T04:21:41.241Z,93.23
2017-03-13T04:22:41.242Z,93.23
2017-03-13T04:23:41.219Z,92.66
2017-03-13T04:24:41.203Z,92.57
2017-03-13T04:25:41.181Z,92.57
2017-03-13T04:26:40.793Z,93.23
2017-03-13T04:27:41.149Z,93.04
2017-03-13T04:28:41.145Z,92.94
2017-03-13T04:29:41.124Z,93.04
2017-03-13T04:30:41.106Z,92.94
2017-03-13T04:31:41.088Z,92.9
2017-03-13T04:32:41.071Z,92.85
2017-03-13T04:33:41.061Z,92.9
2017-03-13T04:34:41.042Z,92.61
2017-03-13T04:35:41.023Z,92.8
2017-03-13T04:36:40.622Z,93.09
2017-03-13T04:37:40.990Z,92.71
2017-03-13T04:38:40.984Z,93.09
2017-03-13T04:39:40.969Z,93.28
2017-03-13T04:40:40.947Z,93.18
2017-03-13T04:41:40.931Z,93.28
2017-03-13T04:42:40.914Z,93.28
2017-03-13T04:43:40.899Z,93.28
2017-03-13T04:44:40.887Z,92.99
2017-03-13T04:45:40.870Z,93.09
2017-03-13T04:46:40.864Z,93.09
2017-03-13T04:47:40.852Z,92.99
2017-03-13T04:48:40.821Z,93.37
2017-03-13T04:49:40.422Z,93.28
2017-03-13T04:50:40.789Z,93.28
2017-03-13T04:51:40.775Z,93.18
2017-03-13T04:52:40.769Z,93.18
2017-03-13T04:53:40.742Z,93.47
2017-03-13T04:54:40.341Z,93.47
2017-03-13T04:55:40.710Z,93.18
2017-03-13T04:56:40.697Z,93.37
2017-03-13T04:57:40.680Z,93.66
2017-03-13T04:58:40.702Z,93.66
2017-03-13T04:59:40.648Z,93.84
2017-03-13T05:00:40.630Z,93.66
2017-03-13T05:01:40.620Z,93.94
2017-03-13T05:02:40.614Z,93.75
2017-03-13T05:03:40.585Z,93.47
2017-03-13T05:04:40.575Z,93.37
2017-03-13T05:05:40.180Z,93.56
2017-03-13T05:06:40.537Z,93.37
2017-03-13T05:07:40.523Z,93.37
2017-03-13T05:08:40.512Z,93.09
2017-03-13T05:09:40.491Z,93.84
2017-03-13T05:10:40.474Z,93.75
2017-03-13T05:11:40.461Z,93.84
2017-03-13T05:12:40.456Z,93.75
2017-03-13T05:13:40.041Z,93.75
2017-03-13T05:14:40.412Z,93.75
2017-03-13T05:15:40.397Z,93.84
2017-03-13T05:16:40.385Z,94.03
2017-03-13T05:17:40.365Z,94.79
2017-03-13T05:18:40.349Z,94.51
2017-03-13T05:19:40.332Z,94.79
2017-03-13T05:20:40.321Z,94.6
2017-03-13T05:21:40.301Z,94.51
2017-03-13T05:22:40.287Z,94.93
2017-03-13T05:23:40.270Z,94.18
2017-03-13T05:24:40.257Z,94.27
2017-03-13T05:25:40.248Z,94.08
2017-03-13T05:26:40.238Z,94.08
2017-03-13T05:27:40.207Z,94.08
2017-03-13T05:28:40.194Z,93.84
2017-03-13T05:29:40.188Z,94.18
2017-03-13T05:30:40.161Z,94.18
2017-03-13T05:31:40.154Z,93.99
2017-03-13T05:32:40.140Z,94.27
2017-03-13T05:33:40.111Z,94.27
2017-03-13T05:34:40.097Z,94.27
2017-03-13T05:35:40.079Z,94.08
2017-03-13T05:36:40.071Z,94.27
2017-03-13T05:37:40.050Z,94.18
2017-03-13T05:38:40.032Z,94.27
2017-03-13T05:39:40.018Z,94.27
2017-03-13T05:40:40.002Z,94.46
2017-03-13T05:41:39.985Z,94.27
2017-03-13T05:42:40.272Z,94.18
2017-03-13T05:43:39.957Z,94.27
2017-03-13T05:44:39.937Z,94.27
2017-03-13T05:45:39.925Z,94.27
2017-03-13T05:46:39.909Z,94.27
2017-03-13T05:47:39.894Z,94.27
2017-03-13T05:48:39.877Z,94.08
2017-03-13T05:49:39.867Z,93.89
2017-03-13T05:50:39.846Z,93.89
2017-03-13T05:51:39.828Z,93.99
2017-03-13T05:52:39.816Z,93.99
2017-03-13T05:53:39.819Z,93.89
2017-03-13T05:54:39.786Z,94.08
2017-03-13T05:55:39.782Z,94.27
2017-03-13T05:56:39.765Z,94.93
2017-03-13T05:57:39.741Z,94.74
2017-03-13T05:58:39.732Z,94.56
2017-03-13T05:59:39.711Z,94.65
2017-03-13T06:00:39.707Z,94.6
2017-03-13T06:01:39.678Z,94.98
2017-03-13T06:02:39.663Z,94.32
2017-03-13T06:03:39.663Z,94.13
2017-03-13T06:04:39.633Z,94.32
2017-03-13T06:05:39.621Z,94.42
2017-03-13T06:06:39.606Z,93.56
2017-03-13T06:07:39.837Z,93.75
2017-03-13T06:08:39.574Z,93.47
2017-03-13T06:09:39.558Z,93.47
2017-03-13T06:10:39.551Z,93.37
2017-03-13T06:11:39.541Z,93.56
2017-03-13T06:12:39.516Z,93.56
2017-03-13T06:13:39.504Z,93.56
2017-03-13T06:14:39.487Z,93.56
2017-03-13T06:15:39.471Z,93.56
2017-03-13T06:16:39.457Z,93.32
2017-03-13T06:17:39.454Z,93.51
2017-03-13T06:18:39.439Z,93.13
2017-03-13T06:19:39.414Z,93.42
2017-03-13T06:20:39.403Z,92.85
2017-03-13T06:21:39.400Z,93.27
2017-03-13T06:22:39.626Z,93.27
2017-03-13T06:23:39.373Z,93.18
2017-03-13T06:24:39.345Z,92.71
2017-03-13T06:25:39.334Z,93.04
2017-03-13T06:26:39.326Z,93.7
2017-03-13T06:27:39.308Z,94.56
2017-03-13T06:28:39.307Z,93.99
2017-03-13T06:29:39.293Z,94.93
2017-03-13T06:30:39.282Z,95.22
2017-03-13T06:31:39.262Z,95.31
2017-03-13T06:32:39.251Z,95.45
2017-03-13T06:33:39.233Z,95.36
2017-03-13T06:34:39.220Z,95.45
2017-03-13T06:35:39.210Z,95.45
2017-03-13T06:36:39.197Z,94.79
2017-03-13T06:37:39.199Z,94.51
2017-03-13T06:38:39.172Z,94.32
2017-03-13T06:39:39.168Z,94.13
2017-03-13T06:40:39.151Z,94.42
2017-03-13T06:41:39.139Z,95.26
2017-03-13T06:42:39.127Z,94.7
2017-03-13T06:43:39.120Z,95.36
2017-03-13T06:44:39.114Z,95.98
2017-03-13T06:45:39.099Z,95.5
2017-03-13T06:46:39.093Z,95.31
2017-03-13T06:47:39.073Z,95.03
2017-03-13T06:48:39.060Z,95.31
2017-03-13T06:49:38.674Z,95.41
2017-03-13T06:50:39.045Z,95.12
2017-03-13T06:51:39.059Z,95.12
2017-03-13T06:52:39.011Z,95.79
2017-03-13T06:53:39.252Z,95.03
2017-03-13T06:54:39.004Z,95.79
2017-03-13T06:55:38.997Z,95.79
2017-03-13T06:56:38.969Z,95.22
2017-03-13T06:57:38.963Z,95.79
2017-03-13T06:58:38.945Z,95.6
2017-03-13T06:59:38.936Z,95.46
2017-03-13T07:00:38.924Z,95.46
2017-03-13T07:01:38.924Z,95.46
2017-03-13T07:02:38.916Z,95.55
2017-03-13T07:03:38.890Z,95.22
2017-03-13T07:04:38.883Z,95.03
2017-03-13T07:05:38.872Z,94.74
2017-03-13T07:06:38.864Z,94.37
2017-03-13T07:07:38.874Z,93.94
2017-03-13T07:08:38.862Z,93.56
2017-03-13T07:09:38.834Z,93.18
2017-03-13T07:10:38.825Z,92.71
2017-03-13T07:11:38.825Z,92.18
2017-03-13T07:12:38.431Z,90.47
2017-03-13T07:13:38.801Z,89.61
2017-03-13T07:14:38.790Z,88.76
2017-03-13T07:15:38.791Z,88.28
2017-03-13T07:16:38.773Z,87.52
2017-03-13T07:17:38.776Z,87.09
2017-03-13T07:18:38.766Z,86.43
2017-03-13T07:19:38.750Z,86.52
2017-03-13T07:20:38.753Z,85.76
2017-03-13T07:21:38.735Z,84.81
2017-03-13T07:22:38.728Z,84.72
2017-03-13T07:23:38.717Z,83.29
2017-03-13T07:24:38.714Z,81.86
2017-03-13T07:25:38.703Z,80.63
2017-03-13T07:26:38.697Z,80.34
2017-03-13T07:27:38.696Z,79.68
2017-03-13T07:28:38.688Z,78.63
2017-03-13T07:29:38.674Z,78.34
2017-03-13T07:30:38.667Z,77.68
2017-03-13T07:31:38.662Z,77.97
2017-03-13T07:32:38.654Z,76.63
2017-03-13T07:33:38.647Z,75.68
2017-03-13T07:34:38.640Z,74.82
2017-03-13T07:35:38.644Z,73.97
2017-03-13T07:36:38.624Z,73.3
2017-03-13T07:37:38.614Z,73.02
2017-03-13T07:38:38.613Z,72.89
2017-03-13T07:39:38.600Z,73.27
2017-03-13T07:40:38.591Z,72.89
2017-03-13T07:41:38.589Z,72.6
2017-03-13T07:42:38.576Z,72.89
2017-03-13T07:43:38.570Z,73.27
2017-03-13T07:44:38.565Z,73.84
2017-03-13T07:45:38.551Z,73.65
2017-03-13T07:46:38.559Z,72.89
2017-03-13T07:47:38.536Z,72.79
2017-03-13T07:48:38.530Z,72.6
2017-03-13T07:49:38.533Z,72.79
2017-03-13T07:50:38.510Z,72.89
2017-03-13T07:51:38.517Z,72.99
2017-03-13T07:52:38.494Z,73.55
2017-03-13T07:53:38.488Z,73.27
2017-03-13T07:54:38.479Z,72.99
2017-03-13T07:55:38.471Z,72.89
2017-03-13T07:56:38.468Z,73.08
2017-03-13T07:57:38.453Z,72.7
2017-03-13T07:58:38.450Z,74.31
2017-03-13T07:59:38.443Z,74.31
2017-03-13T08:00:38.431Z,73.84
2017-03-13T08:01:38.430Z,74.41
2017-03-13T08:02:38.427Z,73.65
2017-03-13T08:03:38.422Z,73.55
2017-03-13T08:04:38.015Z,73.55
2017-03-13T08:05:38.387Z,73.18
2017-03-13T08:06:38.382Z,72.7
2017-03-13T08:07:38.372Z,72.6
2017-03-13T08:08:38.368Z,73.08
2017-03-13T08:09:38.360Z,72.55
2017-03-13T08:10:38.355Z,72.07
2017-03-13T08:11:38.347Z,72.07
2017-03-13T08:12:38.336Z,72.55
2017-03-13T08:13:38.323Z,72.26
2017-03-13T08:14:38.317Z,73.02
2017-03-13T08:15:38.308Z,72.64
2017-03-13T08:16:38.315Z,72.55
2017-03-13T08:17:38.303Z,73.21
2017-03-13T08:18:38.285Z,73.11
2017-03-13T08:19:38.279Z,72.64
2017-03-13T08:20:38.267Z,72.74
2017-03-13T08:21:38.265Z,71.02
2017-03-13T08:22:38.266Z,71.41
2017-03-13T08:23:38.243Z,70.93
2017-03-13T08:24:38.233Z,71.31
2017-03-13T08:25:38.228Z,71.22
2017-03-13T08:26:38.215Z,71.31
2017-03-13T08:27:38.222Z,71.22
2017-03-13T08:28:38.209Z,71.5
2017-03-13T08:29:38.200Z,71.31
2017-03-13T08:30:38.183Z,71.22
2017-03-13T08:31:38.178Z,71.02
2017-03-13T08:32:38.166Z,70.2
2017-03-13T08:33:38.161Z,69.63
2017-03-13T08:34:38.152Z,70.1
2017-03-13T08:35:38.149Z,70.39
2017-03-13T08:36:38.139Z,69.44
2017-03-13T08:37:38.130Z,69.73
2017-03-13T08:38:38.128Z,69.63
2017-03-13T08:39:38.124Z,68.21
2017-03-13T08:40:37.721Z,67.82
2017-03-13T08:41:38.099Z,67.25
2017-03-13T08:42:38.089Z,68.01
2017-03-13T08:43:38.343Z,67.38
2017-03-13T08:44:38.072Z,67.38
2017-03-13T08:45:38.067Z,67.29
2017-03-13T08:46:38.057Z,66.91
2017-03-13T08:47:38.050Z,66.72
2017-03-13T08:48:38.041Z,67.47
2017-03-13T08:49:38.034Z,66.72
2017-03-13T08:50:38.026Z,66.24
2017-03-13T08:51:38.018Z,65.77
2017-03-13T08:52:38.018Z,65.86
2017-03-13T08:53:38.020Z,65.8
2017-03-13T08:54:37.995Z,65.23
2017-03-13T08:55:37.989Z,64.94
2017-03-13T08:56:37.987Z,64.84
2017-03-13T08:57:37.984Z,65.42
2017-03-13T08:58:37.967Z,64.84
2017-03-13T08:59:37.970Z,63.51
2017-03-13T09:00:37.954Z,63.6
2017-03-13T09:01:37.967Z,63.04
2017-03-13T09:02:37.940Z,62.85
2017-03-13T09:03:37.934Z,62.94
2017-03-13T09:04:37.927Z,62.85
2017-03-13T09:05:37.921Z,63.13
2017-03-13T09:06:37.914Z,63.7
2017-03-13T09:07:37.921Z,63.32
2017-03-13T09:08:37.899Z,63.76
2017-03-13T09:09:37.893Z,63.51
2017-03-13T09:10:37.886Z,63.42
2017-03-13T09:11:37.882Z,63.39
2017-03-13T09:12:37.891Z,62.85
2017-03-13T09:13:37.866Z,62.43
2017-03-13T09:14:37.473Z,63.01
2017-03-13T09:15:37.863Z,63.1
2017-03-13T09:16:37.850Z,63.1
2017-03-13T09:17:37.847Z,63.67
2017-03-13T09:18:37.829Z,63.39
2017-03-13T09:19:37.831Z,63.76
2017-03-13T09:20:37.815Z,63.29
2017-03-13T09:21:37.810Z,63.57
2017-03-13T09:22:37.809Z,64.05
2017-03-13T09:23:37.794Z,64.24
2017-03-13T09:24:37.800Z,64.34
2017-03-13T09:25:37.792Z,64.9
2017-03-13T09:26:37.772Z,64.72
2017-03-13T09:27:37.763Z,65.19
2017-03-13T09:28:37.370Z,65.58
2017-03-13T09:29:37.750Z,64.43
2017-03-13T09:30:37.759Z,64.53
2017-03-13T09:31:37.735Z,64.05
2017-03-13T09:32:37.741Z,64.05
2017-03-13T09:33:37.331Z,64.24
2017-03-13T09:34:37.715Z,63.48
2017-03-13T09:35:37.715Z,63.2
2017-03-13T09:36:37.732Z,64.43
2017-03-13T09:37:37.686Z,64.15
2017-03-13T09:38:37.679Z,63.86
2017-03-13T09:39:37.675Z,64.43
2017-03-13T09:40:37.667Z,64.24
2017-03-13T09:41:37.663Z,64.43
2017-03-13T09:42:37.653Z,64.9
2017-03-13T09:43:37.644Z,64.53
2017-03-13T09:44:37.634Z,64.87
2017-03-13T09:45:37.667Z,64.9
2017-03-13T09:46:37.616Z,64.43
2017-03-13T09:47:37.612Z,64.24
2017-03-13T09:48:37.606Z,65.1
2017-03-13T09:49:37.211Z,64.9
2017-03-13T09:50:37.589Z,64.53
2017-03-13T09:51:37.581Z,64.15
2017-03-13T09:52:37.591Z,63.2
2017-03-13T09:53:37.567Z,63.1
2017-03-13T09:54:37.556Z,62.62
2017-03-13T09:55:37.549Z,62.43
2017-03-13T09:56:37.545Z,62.53
2017-03-13T09:57:37.540Z,62.34
2017-03-13T09:58:37.534Z,63.1
2017-03-13T09:59:37.530Z,62.81
2017-03-13T10:00:37.135Z,61.58
2017-03-13T10:01:37.508Z,61.29
2017-03-13T10:02:37.494Z,61.48
2017-03-13T10:03:37.488Z,61.67
2017-03-13T10:04:37.491Z,62.43
2017-03-13T10:05:37.473Z,62.24
2017-03-13T10:06:37.081Z,62.34
2017-03-13T10:07:37.460Z,61.67
2017-03-13T10:08:37.463Z,61.58
2017-03-13T10:09:37.446Z,61.38
2017-03-13T10:10:37.435Z,61.29
2017-03-13T10:11:37.464Z,61.38
2017-03-13T10:12:37.429Z,61.42
2017-03-13T10:13:37.424Z,60.82
2017-03-13T10:14:37.421Z,60.37
2017-03-13T10:15:37.406Z,60.75
2017-03-13T10:16:37.006Z,60.75
2017-03-13T10:17:37.386Z,60.37
2017-03-13T10:18:36.999Z,59.61
2017-03-13T10:19:37.370Z,59.61
2017-03-13T10:20:37.370Z,58.97
2017-03-13T10:21:37.353Z,57.82
2017-03-13T10:22:37.349Z,58.02
2017-03-13T10:23:37.351Z,57.92
2017-03-13T10:24:37.350Z,58.5
2017-03-13T10:25:37.341Z,57.73
2017-03-13T10:26:37.332Z,57.26
2017-03-13T10:27:37.327Z,56.62
2017-03-13T10:28:37.507Z,56.14
2017-03-13T10:29:37.306Z,55.57
2017-03-13T10:30:37.291Z,55.09
2017-03-13T10:31:37.284Z,53.95
2017-03-13T10:32:37.281Z,53.95
2017-03-13T10:33:36.885Z,53.88
2017-03-13T10:34:37.265Z,52.07
2017-03-13T10:35:37.265Z,50.45
2017-03-13T10:36:37.272Z,49.87
2017-03-13T10:37:37.270Z,49.4
2017-03-13T10:38:37.239Z,49.59
2017-03-13T10:39:37.237Z,48.83
2017-03-13T10:40:37.235Z,48.83
2017-03-13T10:41:37.220Z,48.61
2017-03-13T10:42:37.217Z,47.94
2017-03-13T10:43:37.211Z,48.71
2017-03-13T10:44:36.819Z,49.18
2017-03-13T10:45:37.201Z,49.18
2017-03-13T10:46:37.192Z,48.9
2017-03-13T10:47:37.189Z,49.18
2017-03-13T10:48:37.184Z,49.47
2017-03-13T10:49:37.175Z,49.28
2017-03-13T10:50:37.168Z,49.28
2017-03-13T10:51:37.167Z,48.71
2017-03-13T10:52:37.167Z,48.83
2017-03-13T10:53:37.146Z,47.97
2017-03-13T10:54:37.151Z,47.56
2017-03-13T10:55:37.135Z,48.13
2017-03-13T10:56:37.143Z,47.94
2017-03-13T10:57:37.123Z,47.94
2017-03-13T10:58:37.118Z,47.85
2017-03-13T10:59:37.119Z,47.49
2017-03-13T11:00:37.105Z,46.99
2017-03-13T11:01:37.112Z,47.2
2017-03-13T11:02:37.091Z,46.44
2017-03-13T11:03:37.106Z,46.44
2017-03-13T11:04:37.089Z,46.25
2017-03-13T11:05:37.088Z,46.89
2017-03-13T11:06:37.073Z,46.89
2017-03-13T11:07:37.063Z,47.08
2017-03-13T11:08:37.071Z,46.44
2017-03-13T11:09:37.054Z,46.34
2017-03-13T11:10:37.043Z,46.82
2017-03-13T11:11:37.041Z,46.34
2017-03-13T11:12:37.033Z,46.82
2017-03-13T11:13:37.034Z,46.44
2017-03-13T11:14:37.026Z,46.06
2017-03-13T11:15:37.016Z,45.97
2017-03-13T11:16:37.009Z,46.15
2017-03-13T11:17:37.005Z,46.54
2017-03-13T11:18:37.008Z,46.54
2017-03-13T11:19:36.998Z,46.54
2017-03-13T11:20:37.003Z,45.78
2017-03-13T11:21:36.991Z,45.68
2017-03-13T11:22:36.973Z,45.39
2017-03-13T11:23:36.969Z,45.01
2017-03-13T11:24:36.964Z,45.49
2017-03-13T11:25:36.970Z,44.84
2017-03-13T11:26:36.964Z,44.37
2017-03-13T11:27:36.945Z,43.79
2017-03-13T11:28:36.553Z,43.51
2017-03-13T11:29:36.942Z,43.51
2017-03-13T11:30:36.930Z,43.98
2017-03-13T11:31:36.927Z,43.6
2017-03-13T11:32:36.918Z,43.89
2017-03-13T11:33:36.918Z,43.6
2017-03-13T11:34:36.918Z,43.22
2017-03-13T11:35:36.900Z,42.74
2017-03-13T11:36:36.895Z,42.65
2017-03-13T11:37:36.889Z,42.84
2017-03-13T11:38:36.886Z,42.65
2017-03-13T11:39:36.880Z,43.22
2017-03-13T11:40:36.873Z,42.36
2017-03-13T11:41:36.874Z,42.74
2017-03-13T11:42:36.863Z,43.22
2017-03-13T11:43:36.857Z,43.13
2017-03-13T11:44:36.853Z,42.84
2017-03-13T11:45:36.846Z,42.65
2017-03-13T11:46:36.848Z,42.65
2017-03-13T11:47:36.857Z,43.03
2017-03-13T11:48:36.829Z,42.46
2017-03-13T11:49:36.837Z,41.22
2017-03-13T11:50:36.431Z,40.74
2017-03-13T11:51:36.827Z,41.69
2017-03-13T11:52:36.816Z,41.79
2017-03-13T11:53:36.809Z,42.08
2017-03-13T11:54:36.799Z,41.98
2017-03-13T11:55:36.795Z,41.88
2017-03-13T11:56:36.786Z,41.62
2017-03-13T11:57:36.781Z,42.1
2017-03-13T11:58:36.783Z,42.29
2017-03-13T11:59:36.773Z,42.48
2017-03-13T12:00:36.776Z,41.52
2017-03-13T12:01:36.758Z,41.62
2017-03-13T12:02:36.760Z,41.6
2017-03-13T12:03:36.755Z,41.69
2017-03-13T12:04:36.747Z,41.69
2017-03-13T12:05:36.748Z,41.98
2017-03-13T12:06:36.736Z,41.6
2017-03-13T12:07:36.739Z,41.79
2017-03-13T12:08:36.728Z,42.27
2017-03-13T12:09:36.720Z,43.01
2017-03-13T12:10:36.709Z,43.29
2017-03-13T12:11:36.709Z,43.32
2017-03-13T12:12:36.712Z,43.22
2017-03-13T12:13:36.696Z,43.13
2017-03-13T12:14:36.688Z,43.03
2017-03-13T12:15:36.692Z,42.46
2017-03-13T12:16:36.688Z,41.5
2017-03-13T12:17:36.685Z,41.5
2017-03-13T12:18:36.669Z,41.58
2017-03-13T12:19:36.972Z,41.22
2017-03-13T12:20:36.660Z,41.03
2017-03-13T12:21:36.657Z,41
2017-03-13T12:22:36.643Z,41.86
2017-03-13T12:23:36.645Z,42.34
2017-03-13T12:24:36.634Z,42.53
2017-03-13T12:25:36.640Z,42.63
2017-03-13T12:26:36.620Z,41.77
2017-03-13T12:27:36.614Z,41.67
2017-03-13T12:28:36.610Z,41.58
2017-03-13T12:29:36.609Z,41.2
2017-03-13T12:30:36.594Z,41.39
2017-03-13T12:31:36.591Z,41.86
2017-03-13T12:32:36.595Z,42.44
2017-03-13T12:33:36.578Z,42.24
2017-03-13T12:34:36.596Z,42.05
2017-03-13T12:35:36.565Z,41.77
2017-03-13T12:36:36.561Z,42.24
2017-03-13T12:37:36.556Z,43.1
2017-03-13T12:38:36.557Z,43.49
2017-03-13T12:39:36.540Z,43.39
2017-03-13T12:40:36.149Z,42.82
2017-03-13T12:41:36.531Z,42.91
2017-03-13T12:42:36.524Z,43.39
2017-03-13T12:43:36.516Z,43.58
2017-03-13T12:44:36.509Z,43.51
2017-03-13T12:45:36.509Z,43.6
2017-03-13T12:46:36.512Z,43.03
2017-03-13T12:47:36.505Z,42.36
2017-03-13T12:48:36.487Z,42.46
2017-03-13T12:49:36.483Z,42.08
2017-03-13T12:50:36.484Z,41.6
2017-03-13T12:54:13.327Z,41.12
2017-03-13T12:55:13.320Z,41.31
2017-03-13T12:56:12.919Z,41.5
2017-03-13T12:57:12.921Z,41.88